sensor_id;sensor_type;location;lat;lon;timestamp;temperature;humidity
6206;DHT22;3136;48.788;9.772;2022-10-31T00:01:34;8.20;1.00
6206;DHT22;3136;48.788;9.772;2022-10-31T00:04:00;8.20;1.00
6206;DHT22;3136;48.788;9.772;2022-10-31T00:06:26;8.20;1.00
6206;DHT22;3136;48.788;9.772;2022-10-31T00:09:00;8.20;1.00
6206;DHT22;3136;48.788;9.772;2022-10-31T00:11:26;8.20;1.00
6206;DHT22;3136;48.788;9.772;2022-10-31T00:13:52;8.20;1.00
6206;DHT22;3136;48.788;9.772;2022-10-31T00:16:20;8.20;1.00
6206;DHT22;3136;48.788;9.772;2022-10-31T00:18:57;8.10;1.00
6206;DHT22;3136;48.788;9.772;2022-10-31T00:21:23;8.20;1.00
6206;DHT22;3136;48.788;9.772;2022-10-31T00:23:49;8.10;1.00
6206;DHT22;3136;48.788;9.772;2022-10-31T00:26:15;8.10;1.00
6206;DHT22;3136;48.788;9.772;2022-10-31T00:28:41;8.10;1.00
6206;DHT22;3136;48.788;9.772;2022-10-31T00:31:08;8.00;1.00
6206;DHT22;3136;48.788;9.772;2022-10-31T00:33:35;8.00;1.00
6206;DHT22;3136;48.788;9.772;2022-10-31T00:36:02;8.00;1.00
6206;DHT22;3136;48.788;9.772;2022-10-31T00:38:28;7.90;1.00
6206;DHT22;3136;48.788;9.772;2022-10-31T00:40:54;7.90;1.00
6206;DHT22;3136;48.788;9.772;2022-10-31T00:43:19;7.90;1.00
6206;DHT22;3136;48.788;9.772;2022-10-31T00:45:45;7.90;1.00
6206;DHT22;3136;48.788;9.772;2022-10-31T00:48:12;7.90;1.00
6206;DHT22;3136;48.788;9.772;2022-10-31T00:50:37;7.90;1.00
6206;DHT22;3136;48.788;9.772;2022-10-31T00:53:03;7.90;1.00
6206;DHT22;3136;48.788;9.772;2022-10-31T00:55:29;7.80;1.00
6206;DHT22;3136;48.788;9.772;2022-10-31T00:57:54;7.80;1.00
6206;DHT22;3136;48.788;9.772;2022-10-31T01:00:20;9.70;1.00
6206;DHT22;3136;48.788;9.772;2022-10-31T01:02:46;7.80;1.00
6206;DHT22;3136;48.788;9.772;2022-10-31T01:05:11;7.80;1.00
6206;DHT22;3136;48.788;9.772;2022-10-31T01:07:38;7.70;1.00
6206;DHT22;3136;48.788;9.772;2022-10-31T01:10:05;7.70;1.00
6206;DHT22;3136;48.788;9.772;2022-10-31T01:12:42;7.70;1.00
6206;DHT22;3136;48.788;9.772;2022-10-31T01:15:09;7.90;1.00
6206;DHT22;3136;48.788;9.772;2022-10-31T01:17:35;7.70;1.00
6206;DHT22;3136;48.788;9.772;2022-10-31T01:20:01;8.00;1.00
6206;DHT22;3136;48.788;9.772;2022-10-31T01:22:27;7.90;1.00
6206;DHT22;3136;48.788;9.772;2022-10-31T01:24:52;8.20;1.00
6206;DHT22;3136;48.788;9.772;2022-10-31T01:27:18;7.60;1.00
6206;DHT22;3136;48.788;9.772;2022-10-31T01:29:43;7.70;1.00
6206;DHT22;3136;48.788;9.772;2022-10-31T01:32:09;7.60;1.00
6206;DHT22;3136;48.788;9.772;2022-10-31T01:34:35;9.40;1.00
6206;DHT22;3136;48.788;9.772;2022-10-31T01:37:00;7.60;1.00
6206;DHT22;3136;48.788;9.772;2022-10-31T01:39:26;7.70;1.00
6206;DHT22;3136;48.788;9.772;2022-10-31T01:41:52;7.60;1.00
6206;DHT22;3136;48.788;9.772;2022-10-31T01:49:23;7.70;1.00
6206;DHT22;3136;48.788;9.772;2022-10-31T01:51:56;7.70;1.00
6206;DHT22;3136;48.788;9.772;2022-10-31T01:54:26;7.70;1.00
6206;DHT22;3136;48.788;9.772;2022-10-31T01:56:56;7.60;1.00
6206;DHT22;3136;48.788;9.772;2022-10-31T01:59:24;7.60;1.00
6206;DHT22;3136;48.788;9.772;2022-10-31T02:01:53;7.60;1.00
6206;DHT22;3136;48.788;9.772;2022-10-31T02:04:19;7.50;1.00
6206;DHT22;3136;48.788;9.772;2022-10-31T02:06:53;7.50;1.00
6206;DHT22;3136;48.788;9.772;2022-10-31T02:09:20;7.50;1.00
6206;DHT22;3136;48.788;9.772;2022-10-31T02:11:53;7.50;1.00
6206;DHT22;3136;48.788;9.772;2022-10-31T02:14:25;7.50;1.00
6206;DHT22;3136;48.788;9.772;2022-10-31T02:16:53;7.50;1.00
6206;DHT22;3136;48.788;9.772;2022-10-31T02:19:30;7.50;1.00
6206;DHT22;3136;48.788;9.772;2022-10-31T02:22:05;7.60;1.00
6206;DHT22;3136;48.788;9.772;2022-10-31T02:24:50;7.50;1.00
6206;DHT22;3136;48.788;9.772;2022-10-31T02:27:41;7.40;1.00
6206;DHT22;3136;48.788;9.772;2022-10-31T02:30:21;7.40;1.00
6206;DHT22;3136;48.788;9.772;2022-10-31T02:32:57;7.40;1.00
6206;DHT22;3136;48.788;9.772;2022-10-31T02:35:40;7.40;1.00
6206;DHT22;3136;48.788;9.772;2022-10-31T02:41:01;7.40;1.00
6206;DHT22;3136;48.788;9.772;2022-10-31T02:46:14;7.30;1.00
6206;DHT22;3136;48.788;9.772;2022-10-31T02:48:44;7.30;1.00
6206;DHT22;3136;48.788;9.772;2022-10-31T02:51:11;7.30;1.00
6206;DHT22;3136;48.788;9.772;2022-10-31T02:53:37;7.30;1.00
6206;DHT22;3136;48.788;9.772;2022-10-31T02:56:21;7.30;1.00
6206;DHT22;3136;48.788;9.772;2022-10-31T02:58:57;7.40;1.00
6206;DHT22;3136;48.788;9.772;2022-10-31T03:01:47;7.30;1.00
6206;DHT22;3136;48.788;9.772;2022-10-31T03:04:46;7.30;1.00
6206;DHT22;3136;48.788;9.772;2022-10-31T03:07:47;7.20;1.00
6206;DHT22;3136;48.788;9.772;2022-10-31T03:10:43;7.20;1.00
6206;DHT22;3136;48.788;9.772;2022-10-31T03:15:53;7.20;1.00
6206;DHT22;3136;48.788;9.772;2022-10-31T03:18:26;7.20;1.00
6206;DHT22;3136;48.788;9.772;2022-10-31T03:20:59;7.30;1.00
6206;DHT22;3136;48.788;9.772;2022-10-31T03:23:27;7.30;1.00
6206;DHT22;3136;48.788;9.772;2022-10-31T03:25:54;7.30;1.00
6206;DHT22;3136;48.788;9.772;2022-10-31T03:28:26;7.30;1.00
6206;DHT22;3136;48.788;9.772;2022-10-31T03:30:53;7.30;1.00
6206;DHT22;3136;48.788;9.772;2022-10-31T03:33:26;7.30;1.00
6206;DHT22;3136;48.788;9.772;2022-10-31T03:35:53;7.30;1.00
6206;DHT22;3136;48.788;9.772;2022-10-31T03:38:21;7.20;1.00
6206;DHT22;3136;48.788;9.772;2022-10-31T03:40:48;7.20;1.00
6206;DHT22;3136;48.788;9.772;2022-10-31T03:43:21;7.20;1.00
6206;DHT22;3136;48.788;9.772;2022-10-31T03:45:48;5.50;1.00
6206;DHT22;3136;48.788;9.772;2022-10-31T03:48:15;7.20;1.00
6206;DHT22;3136;48.788;9.772;2022-10-31T03:53:57;7.10;1.00
6206;DHT22;3136;48.788;9.772;2022-10-31T03:56:34;7.10;1.00
6206;DHT22;3136;48.788;9.772;2022-10-31T03:59:08;7.00;1.00
6206;DHT22;3136;48.788;9.772;2022-10-31T04:01:39;7.00;1.00
6206;DHT22;3136;48.788;9.772;2022-10-31T04:04:06;7.00;1.00
6206;DHT22;3136;48.788;9.772;2022-10-31T04:06:34;7.00;1.00
6206;DHT22;3136;48.788;9.772;2022-10-31T04:09:03;7.00;1.00
6206;DHT22;3136;48.788;9.772;2022-10-31T04:11:33;7.00;1.00
6206;DHT22;3136;48.788;9.772;2022-10-31T04:14:01;6.90;1.00
6206;DHT22;3136;48.788;9.772;2022-10-31T04:16:29;6.90;1.00
6206;DHT22;3136;48.788;9.772;2022-10-31T04:18:54;6.90;1.00
6206;DHT22;3136;48.788;9.772;2022-10-31T04:21:26;6.90;1.00
6206;DHT22;3136;48.788;9.772;2022-10-31T04:23:52;6.90;1.00
6206;DHT22;3136;48.788;9.772;2022-10-31T04:26:18;6.90;1.00
6206;DHT22;3136;48.788;9.772;2022-10-31T04:28:43;6.80;1.00
6206;DHT22;3136;48.788;9.772;2022-10-31T04:31:11;6.80;1.00
6206;DHT22;3136;48.788;9.772;2022-10-31T04:33:36;6.80;1.00
6206;DHT22;3136;48.788;9.772;2022-10-31T04:36:02;6.80;1.00
6206;DHT22;3136;48.788;9.772;2022-10-31T04:38:28;6.90;1.00
6206;DHT22;3136;48.788;9.772;2022-10-31T04:40:53;6.90;1.00
6206;DHT22;3136;48.788;9.772;2022-10-31T04:43:19;6.90;1.00
6206;DHT22;3136;48.788;9.772;2022-10-31T04:45:45;6.80;1.00
6206;DHT22;3136;48.788;9.772;2022-10-31T04:48:10;6.80;1.00
6206;DHT22;3136;48.788;9.772;2022-10-31T04:50:36;6.80;1.00
6206;DHT22;3136;48.788;9.772;2022-10-31T04:53:01;7.10;1.00
6206;DHT22;3136;48.788;9.772;2022-10-31T04:55:27;6.80;1.00
6206;DHT22;3136;48.788;9.772;2022-10-31T04:57:53;6.70;1.00
6206;DHT22;3136;48.788;9.772;2022-10-31T05:00:20;6.70;1.00
6206;DHT22;3136;48.788;9.772;2022-10-31T05:02:54;6.70;1.00
6206;DHT22;3136;48.788;9.772;2022-10-31T05:05:27;6.80;1.00
6206;DHT22;3136;48.788;9.772;2022-10-31T05:07:53;6.80;1.00
6206;DHT22;3136;48.788;9.772;2022-10-31T05:10:21;6.80;1.00
6206;DHT22;3136;48.788;9.772;2022-10-31T05:12:56;6.80;1.00
6206;DHT22;3136;48.788;9.772;2022-10-31T05:15:23;6.70;1.00
6206;DHT22;3136;48.788;9.772;2022-10-31T05:17:49;6.70;1.00
6206;DHT22;3136;48.788;9.772;2022-10-31T05:20:17;6.70;1.00
6206;DHT22;3136;48.788;9.772;2022-10-31T05:22:44;6.70;1.00
6206;DHT22;3136;48.788;9.772;2022-10-31T05:25:11;6.60;1.00
6206;DHT22;3136;48.788;9.772;2022-10-31T05:27:41;6.60;1.00
6206;DHT22;3136;48.788;9.772;2022-10-31T05:30:07;6.60;1.00
6206;DHT22;3136;48.788;9.772;2022-10-31T05:32:41;6.60;1.00
6206;DHT22;3136;48.788;9.772;2022-10-31T05:35:08;6.60;1.00
6206;DHT22;3136;48.788;9.772;2022-10-31T05:37:35;6.60;1.00
6206;DHT22;3136;48.788;9.772;2022-10-31T05:40:01;6.60;1.00
6206;DHT22;3136;48.788;9.772;2022-10-31T05:42:27;6.60;1.00
6206;DHT22;3136;48.788;9.772;2022-10-31T05:44:52;6.60;1.00
6206;DHT22;3136;48.788;9.772;2022-10-31T05:47:18;6.60;1.00
6206;DHT22;3136;48.788;9.772;2022-10-31T05:49:43;6.60;1.00
6206;DHT22;3136;48.788;9.772;2022-10-31T05:52:09;6.50;1.00
6206;DHT22;3136;48.788;9.772;2022-10-31T05:54:34;6.50;1.00
6206;DHT22;3136;48.788;9.772;2022-10-31T05:57:00;6.50;1.00
6206;DHT22;3136;48.788;9.772;2022-10-31T05:59:25;6.40;1.00
6206;DHT22;3136;48.788;9.772;2022-10-31T06:01:51;6.40;1.00
6206;DHT22;3136;48.788;9.772;2022-10-31T06:04:16;6.40;1.00
6206;DHT22;3136;48.788;9.772;2022-10-31T06:06:42;6.40;1.00
6206;DHT22;3136;48.788;9.772;2022-10-31T06:09:08;6.50;1.00
6206;DHT22;3136;48.788;9.772;2022-10-31T06:11:33;7.40;1.00
6206;DHT22;3136;48.788;9.772;2022-10-31T06:13:59;6.60;1.00
6206;DHT22;3136;48.788;9.772;2022-10-31T06:16:24;6.60;1.00
6206;DHT22;3136;48.788;9.772;2022-10-31T06:18:50;6.60;1.00
6206;DHT22;3136;48.788;9.772;2022-10-31T06:21:15;6.60;1.00
6206;DHT22;3136;48.788;9.772;2022-10-31T06:23:41;6.50;1.00
6206;DHT22;3136;48.788;9.772;2022-10-31T06:26:06;6.50;1.00
6206;DHT22;3136;48.788;9.772;2022-10-31T06:28:32;6.50;1.00
6206;DHT22;3136;48.788;9.772;2022-10-31T06:30:57;6.50;1.00
6206;DHT22;3136;48.788;9.772;2022-10-31T06:33:23;6.50;1.00
6206;DHT22;3136;48.788;9.772;2022-10-31T06:35:48;6.50;1.00
6206;DHT22;3136;48.788;9.772;2022-10-31T06:38:14;6.50;1.00
6206;DHT22;3136;48.788;9.772;2022-10-31T06:40:41;6.50;1.00
6206;DHT22;3136;48.788;9.772;2022-10-31T06:43:06;6.50;1.00
6206;DHT22;3136;48.788;9.772;2022-10-31T06:45:32;6.50;1.00
6206;DHT22;3136;48.788;9.772;2022-10-31T06:47:57;6.60;1.00
6206;DHT22;3136;48.788;9.772;2022-10-31T06:50:23;6.60;1.00
6206;DHT22;3136;48.788;9.772;2022-10-31T06:52:53;6.60;1.00
6206;DHT22;3136;48.788;9.772;2022-10-31T06:55:19;6.70;1.00
6206;DHT22;3136;48.788;9.772;2022-10-31T06:57:55;6.80;1.00
6206;DHT22;3136;48.788;9.772;2022-10-31T07:00:21;6.90;1.00
6206;DHT22;3136;48.788;9.772;2022-10-31T07:05:22;6.90;1.00
6206;DHT22;3136;48.788;9.772;2022-10-31T07:07:55;7.00;1.00
6206;DHT22;3136;48.788;9.772;2022-10-31T07:10:22;7.00;1.00
6206;DHT22;3136;48.788;9.772;2022-10-31T07:12:51;7.10;1.00
6206;DHT22;3136;48.788;9.772;2022-10-31T07:15:18;7.20;1.00
6206;DHT22;3136;48.788;9.772;2022-10-31T07:17:44;7.30;1.00
6206;DHT22;3136;48.788;9.772;2022-10-31T07:20:09;7.40;1.00
6206;DHT22;3136;48.788;9.772;2022-10-31T07:22:36;7.40;1.00
6206;DHT22;3136;48.788;9.772;2022-10-31T07:25:02;7.50;1.00
6206;DHT22;3136;48.788;9.772;2022-10-31T07:27:28;7.60;1.00
6206;DHT22;3136;48.788;9.772;2022-10-31T07:29:54;7.70;1.00
6206;DHT22;3136;48.788;9.772;2022-10-31T07:32:19;7.70;1.00
6206;DHT22;3136;48.788;9.772;2022-10-31T07:34:45;7.90;1.00
6206;DHT22;3136;48.788;9.772;2022-10-31T07:37:10;7.90;1.00
6206;DHT22;3136;48.788;9.772;2022-10-31T07:39:36;8.00;1.00
6206;DHT22;3136;48.788;9.772;2022-10-31T07:42:01;8.10;1.00
6206;DHT22;3136;48.788;9.772;2022-10-31T07:44:27;8.20;1.00
6206;DHT22;3136;48.788;9.772;2022-10-31T07:46:52;8.40;1.00
6206;DHT22;3136;48.788;9.772;2022-10-31T07:49:18;8.60;1.00
6206;DHT22;3136;48.788;9.772;2022-10-31T07:51:43;8.70;1.00
6206;DHT22;3136;48.788;9.772;2022-10-31T07:54:09;8.80;1.00
6206;DHT22;3136;48.788;9.772;2022-10-31T07:56:34;8.90;1.00
6206;DHT22;3136;48.788;9.772;2022-10-31T07:59:00;9.00;1.00
6206;DHT22;3136;48.788;9.772;2022-10-31T08:01:26;9.20;1.00
6206;DHT22;3136;48.788;9.772;2022-10-31T08:03:51;9.20;1.00
6206;DHT22;3136;48.788;9.772;2022-10-31T08:06:17;9.30;1.00
6206;DHT22;3136;48.788;9.772;2022-10-31T08:08:43;9.40;1.00
6206;DHT22;3136;48.788;9.772;2022-10-31T08:11:08;9.50;1.00
6206;DHT22;3136;48.788;9.772;2022-10-31T08:13:34;9.60;1.00
6206;DHT22;3136;48.788;9.772;2022-10-31T08:16:00;9.80;1.00
6206;DHT22;3136;48.788;9.772;2022-10-31T08:18:29;9.90;1.00
6206;DHT22;3136;48.788;9.772;2022-10-31T08:20:55;10.00;1.00
6206;DHT22;3136;48.788;9.772;2022-10-31T08:23:21;10.10;1.00
6206;DHT22;3136;48.788;9.772;2022-10-31T08:25:46;10.20;1.00
6206;DHT22;3136;48.788;9.772;2022-10-31T08:28:13;10.30;1.00
6206;DHT22;3136;48.788;9.772;2022-10-31T08:30:40;10.50;1.00
6206;DHT22;3136;48.788;9.772;2022-10-31T08:33:09;11.30;1.00
6206;DHT22;3136;48.788;9.772;2022-10-31T08:35:35;10.80;1.00
6206;DHT22;3136;48.788;9.772;2022-10-31T08:38:01;10.90;1.00
6206;DHT22;3136;48.788;9.772;2022-10-31T08:40:28;11.10;1.00
6206;DHT22;3136;48.788;9.772;2022-10-31T08:43:05;11.20;99.90
6206;DHT22;3136;48.788;9.772;2022-10-31T08:45:33;11.30;1.00
6206;DHT22;3136;48.788;9.772;2022-10-31T08:48:04;11.50;1.00
6206;DHT22;3136;48.788;9.772;2022-10-31T08:50:32;11.70;1.00
6206;DHT22;3136;48.788;9.772;2022-10-31T08:53:09;11.80;1.00
6206;DHT22;3136;48.788;9.772;2022-10-31T08:55:37;11.90;1.00
6206;DHT22;3136;48.788;9.772;2022-10-31T08:58:05;12.00;1.00
6206;DHT22;3136;48.788;9.772;2022-10-31T09:00:31;12.10;1.00
6206;DHT22;3136;48.788;9.772;2022-10-31T09:03:03;12.30;1.00
6206;DHT22;3136;48.788;9.772;2022-10-31T09:05:30;12.40;99.90
6206;DHT22;3136;48.788;9.772;2022-10-31T09:07:57;12.60;99.90
6206;DHT22;3136;48.788;9.772;2022-10-31T09:10:23;12.70;33.30
6206;DHT22;3136;48.788;9.772;2022-10-31T09:13:10;13.30;1.00
6206;DHT22;3136;48.788;9.772;2022-10-31T09:15:38;12.90;1.00
6206;DHT22;3136;48.788;9.772;2022-10-31T09:18:05;13.00;99.90
6206;DHT22;3136;48.788;9.772;2022-10-31T09:20:31;14.50;99.90
6206;DHT22;3136;48.788;9.772;2022-10-31T09:23:05;13.30;99.90
6206;DHT22;3136;48.788;9.772;2022-10-31T09:25:33;13.30;99.90
6206;DHT22;3136;48.788;9.772;2022-10-31T09:28:00;13.40;99.90
6206;DHT22;3136;48.788;9.772;2022-10-31T09:30:27;13.50;99.90
6206;DHT22;3136;48.788;9.772;2022-10-31T09:32:58;13.70;99.90
6206;DHT22;3136;48.788;9.772;2022-10-31T09:35:24;13.90;99.90
6206;DHT22;3136;48.788;9.772;2022-10-31T09:38:16;14.00;99.90
6206;DHT22;3136;48.788;9.772;2022-10-31T09:41:01;14.20;99.90
6206;DHT22;3136;48.788;9.772;2022-10-31T09:46:12;14.80;99.90
6206;DHT22;3136;48.788;9.772;2022-10-31T09:51:36;15.30;99.90
6206;DHT22;3136;48.788;9.772;2022-10-31T09:54:32;15.50;99.90
6206;DHT22;3136;48.788;9.772;2022-10-31T09:56:59;15.80;99.90
6206;DHT22;3136;48.788;9.772;2022-10-31T09:59:31;16.10;92.20
6206;DHT22;3136;48.788;9.772;2022-10-31T10:02:13;16.40;86.80
6206;DHT22;3136;48.788;9.772;2022-10-31T10:19:11;17.50;41.60
6206;DHT22;3136;48.788;9.772;2022-10-31T10:21:51;17.60;39.70
6206;DHT22;3136;48.788;9.772;2022-10-31T10:30:02;17.80;32.10
6206;DHT22;3136;48.788;9.772;2022-10-31T10:32:30;18.00;31.20
6206;DHT22;3136;48.788;9.772;2022-10-31T10:35:27;18.20;26.60
6206;DHT22;3136;48.788;9.772;2022-10-31T10:38:04;18.20;23.90
6206;DHT22;3136;48.788;9.772;2022-10-31T10:40:34;18.30;23.00
6206;DHT22;3136;48.788;9.772;2022-10-31T10:43:32;18.30;23.90
6206;DHT22;3136;48.788;9.772;2022-10-31T10:49:00;18.80;22.20
6206;DHT22;3136;48.788;9.772;2022-10-31T10:59:17;19.60;16.70
6206;DHT22;3136;48.788;9.772;2022-10-31T11:01:43;19.70;14.50
6206;DHT22;3136;48.788;9.772;2022-10-31T11:04:34;19.60;13.30
6206;DHT22;3136;48.788;9.772;2022-10-31T11:07:10;19.40;15.20
6206;DHT22;3136;48.788;9.772;2022-10-31T11:09:37;19.50;13.80
6206;DHT22;3136;48.788;9.772;2022-10-31T11:12:17;19.50;13.20
6206;DHT22;3136;48.788;9.772;2022-10-31T11:14:50;19.50;13.10
6206;DHT22;3136;48.788;9.772;2022-10-31T11:17:36;19.40;10.30
6206;DHT22;3136;48.788;9.772;2022-10-31T11:22:29;19.70;12.00
6206;DHT22;3136;48.788;9.772;2022-10-31T11:24:55;19.80;13.10
6206;DHT22;3136;48.788;9.772;2022-10-31T11:27:23;19.80;10.10
6206;DHT22;3136;48.788;9.772;2022-10-31T11:29:49;19.70;8.50
6206;DHT22;3136;48.788;9.772;2022-10-31T11:32:22;19.60;8.10
6206;DHT22;3136;48.788;9.772;2022-10-31T11:34:57;19.60;10.50
6206;DHT22;3136;48.788;9.772;2022-10-31T11:37:30;19.40;10.40
6206;DHT22;3136;48.788;9.772;2022-10-31T11:40:02;19.50;7.30
6206;DHT22;3136;48.788;9.772;2022-10-31T11:42:40;19.60;7.10
6206;DHT22;3136;48.788;9.772;2022-10-31T11:45:33;19.80;7.30
6206;DHT22;3136;48.788;9.772;2022-10-31T11:48:01;20.10;4.30
6206;DHT22;3136;48.788;9.772;2022-10-31T11:50:34;20.20;3.40
6206;DHT22;3136;48.788;9.772;2022-10-31T11:53:01;20.50;1.50
6206;DHT22;3136;48.788;9.772;2022-10-31T11:55:34;20.70;1.20
6206;DHT22;3136;48.788;9.772;2022-10-31T11:58:00;21.20;1.00
6206;DHT22;3136;48.788;9.772;2022-10-31T12:00:29;21.60;1.00
6206;DHT22;3136;48.788;9.772;2022-10-31T12:06:16;22.10;1.00
6206;DHT22;3136;48.788;9.772;2022-10-31T12:08:44;22.20;1.00
6206;DHT22;3136;48.788;9.772;2022-10-31T12:16:52;22.60;1.00
6206;DHT22;3136;48.788;9.772;2022-10-31T12:25:08;22.40;1.00
6206;DHT22;3136;48.788;9.772;2022-10-31T12:30:28;22.10;1.00
6206;DHT22;3136;48.788;9.772;2022-10-31T12:33:25;22.20;1.00
6206;DHT22;3136;48.788;9.772;2022-10-31T12:41:52;23.60;1.00
6206;DHT22;3136;48.788;9.772;2022-10-31T12:53:00;25.00;1.00
6206;DHT22;3136;48.788;9.772;2022-10-31T12:55:40;25.20;1.00
6206;DHT22;3136;48.788;9.772;2022-10-31T13:01:15;24.60;1.00
6206;DHT22;3136;48.788;9.772;2022-10-31T13:06:20;22.90;1.00
6206;DHT22;3136;48.788;9.772;2022-10-31T13:08:57;22.10;1.00
6206;DHT22;3136;48.788;9.772;2022-10-31T13:11:40;21.30;1.00
6206;DHT22;3136;48.788;9.772;2022-10-31T13:14:23;20.70;2.50
6206;DHT22;3136;48.788;9.772;2022-10-31T13:16:50;20.20;7.50
6206;DHT22;3136;48.788;9.772;2022-10-31T13:19:27;19.90;11.70
6206;DHT22;3136;48.788;9.772;2022-10-31T13:24:40;19.50;18.10
6206;DHT22;3136;48.788;9.772;2022-10-31T13:27:18;19.30;22.70
6206;DHT22;3136;48.788;9.772;2022-10-31T13:32:56;19.20;26.60
6206;DHT22;3136;48.788;9.772;2022-10-31T13:38:16;19.00;32.20
6206;DHT22;3136;48.788;9.772;2022-10-31T13:44:01;18.90;33.70
6206;DHT22;3136;48.788;9.772;2022-10-31T13:46:35;18.80;47.50
6206;DHT22;3136;48.788;9.772;2022-10-31T13:49:01;18.70;54.70
6206;DHT22;3136;48.788;9.772;2022-10-31T13:51:33;17.90;59.60
6206;DHT22;3136;48.788;9.772;2022-10-31T13:54:23;18.60;68.60
6206;DHT22;3136;48.788;9.772;2022-10-31T13:56:52;18.60;82.60
6206;DHT22;3136;48.788;9.772;2022-10-31T13:59:23;18.50;86.30
6206;DHT22;3136;48.788;9.772;2022-10-31T14:01:55;18.50;91.70
6206;DHT22;3136;48.788;9.772;2022-10-31T14:04:28;18.40;96.70
6206;DHT22;3136;48.788;9.772;2022-10-31T14:07:14;18.40;99.90
6206;DHT22;3136;48.788;9.772;2022-10-31T14:10:03;18.30;99.90
6206;DHT22;3136;48.788;9.772;2022-10-31T14:12:37;18.40;99.90
6206;DHT22;3136;48.788;9.772;2022-10-31T14:15:22;18.50;99.90
6206;DHT22;3136;48.788;9.772;2022-10-31T14:23:30;19.00;99.90
6206;DHT22;3136;48.788;9.772;2022-10-31T14:28:48;19.90;51.80
6206;DHT22;3136;48.788;9.772;2022-10-31T14:31:35;20.20;29.50
6206;DHT22;3136;48.788;9.772;2022-10-31T14:34:22;20.50;23.40
6206;DHT22;3136;48.788;9.772;2022-10-31T14:36:58;20.50;18.90
6206;DHT22;3136;48.788;9.772;2022-10-31T14:50:47;19.40;38.40
6206;DHT22;3136;48.788;9.772;2022-10-31T14:53:28;19.10;43.50
6206;DHT22;3136;48.788;9.772;2022-10-31T14:55:56;18.90;50.30
6206;DHT22;3136;48.788;9.772;2022-10-31T14:58:38;18.70;56.80
6206;DHT22;3136;48.788;9.772;2022-10-31T15:01:05;18.40;79.10
6206;DHT22;3136;48.788;9.772;2022-10-31T15:03:37;18.10;99.90
6206;DHT22;3136;48.788;9.772;2022-10-31T15:06:10;18.20;99.90
6206;DHT22;3136;48.788;9.772;2022-10-31T15:08:44;18.00;99.90
6206;DHT22;3136;48.788;9.772;2022-10-31T15:11:15;17.80;99.90
6206;DHT22;3136;48.788;9.772;2022-10-31T15:13:42;17.70;99.90
6206;DHT22;3136;48.788;9.772;2022-10-31T15:16:10;17.40;99.90
6206;DHT22;3136;48.788;9.772;2022-10-31T15:18:44;17.20;99.90
6206;DHT22;3136;48.788;9.772;2022-10-31T15:21:11;17.00;99.90
6206;DHT22;3136;48.788;9.772;2022-10-31T15:23:39;16.80;99.90
6206;DHT22;3136;48.788;9.772;2022-10-31T15:26:05;16.60;99.90
6206;DHT22;3136;48.788;9.772;2022-10-31T15:28:31;16.50;99.90
6206;DHT22;3136;48.788;9.772;2022-10-31T15:30:59;16.30;99.90
6206;DHT22;3136;48.788;9.772;2022-10-31T15:33:39;16.10;99.90
6206;DHT22;3136;48.788;9.772;2022-10-31T15:36:05;15.90;99.90
6206;DHT22;3136;48.788;9.772;2022-10-31T15:38:31;15.70;1.00
6206;DHT22;3136;48.788;9.772;2022-10-31T15:41:17;15.60;1.00
6206;DHT22;3136;48.788;9.772;2022-10-31T15:43:46;15.40;1.00
6206;DHT22;3136;48.788;9.772;2022-10-31T15:46:13;15.30;77.10
6206;DHT22;3136;48.788;9.772;2022-10-31T15:48:38;15.10;99.90
6206;DHT22;3136;48.788;9.772;2022-10-31T15:51:09;15.00;99.90
6206;DHT22;3136;48.788;9.772;2022-10-31T15:53:45;14.90;1.00
6206;DHT22;3136;48.788;9.772;2022-10-31T15:56:19;14.80;99.90
6206;DHT22;3136;48.788;9.772;2022-10-31T15:58:48;14.70;1.00
6206;DHT22;3136;48.788;9.772;2022-10-31T16:01:27;14.60;99.90
6206;DHT22;3136;48.788;9.772;2022-10-31T16:06:30;14.40;1.00
6206;DHT22;3136;48.788;9.772;2022-10-31T16:08:56;14.30;1.00
6206;DHT22;3136;48.788;9.772;2022-10-31T16:16:28;13.90;1.00
6206;DHT22;3136;48.788;9.772;2022-10-31T16:18:55;13.90;1.00
6206;DHT22;3136;48.788;9.772;2022-10-31T16:21:30;13.80;99.90
6206;DHT22;3136;48.788;9.772;2022-10-31T16:24:22;13.70;56.20
6206;DHT22;3136;48.788;9.772;2022-10-31T16:26:51;13.60;1.00
6206;DHT22;3136;48.788;9.772;2022-10-31T16:29:44;13.50;1.00
6206;DHT22;3136;48.788;9.772;2022-10-31T16:32:55;13.30;99.90
6206;DHT22;3136;48.788;9.772;2022-10-31T16:37:57;13.10;1.00
6206;DHT22;3136;48.788;9.772;2022-10-31T16:40:23;13.10;99.90
6206;DHT22;3136;48.788;9.772;2022-10-31T16:42:49;13.00;1.00
6206;DHT22;3136;48.788;9.772;2022-10-31T16:45:18;13.00;1.00
6206;DHT22;3136;48.788;9.772;2022-10-31T16:47:45;12.90;1.00
6206;DHT22;3136;48.788;9.772;2022-10-31T16:50:29;12.80;1.00
6206;DHT22;3136;48.788;9.772;2022-10-31T16:52:54;12.70;1.00
6206;DHT22;3136;48.788;9.772;2022-10-31T16:55:20;12.70;99.90
6206;DHT22;3136;48.788;9.772;2022-10-31T16:57:51;12.60;99.90
6206;DHT22;3136;48.788;9.772;2022-10-31T17:00:22;12.60;99.90
6206;DHT22;3136;48.788;9.772;2022-10-31T17:02:50;12.50;99.90
6206;DHT22;3136;48.788;9.772;2022-10-31T17:05:18;12.50;99.90
6206;DHT22;3136;48.788;9.772;2022-10-31T17:07:43;12.40;1.00
6206;DHT22;3136;48.788;9.772;2022-10-31T17:10:10;12.30;1.00
6206;DHT22;3136;48.788;9.772;2022-10-31T17:12:37;12.40;1.00
6206;DHT22;3136;48.788;9.772;2022-10-31T17:15:05;12.20;1.00
6206;DHT22;3136;48.788;9.772;2022-10-31T17:17:31;12.20;1.00
6206;DHT22;3136;48.788;9.772;2022-10-31T17:19:57;12.10;1.00
6206;DHT22;3136;48.788;9.772;2022-10-31T17:22:22;12.10;1.00
6206;DHT22;3136;48.788;9.772;2022-10-31T17:24:48;12.00;1.00
6206;DHT22;3136;48.788;9.772;2022-10-31T17:27:13;12.00;1.00
6206;DHT22;3136;48.788;9.772;2022-10-31T17:29:39;11.90;1.00
6206;DHT22;3136;48.788;9.772;2022-10-31T17:32:04;11.90;1.00
6206;DHT22;3136;48.788;9.772;2022-10-31T17:34:30;11.70;1.00
6206;DHT22;3136;48.788;9.772;2022-10-31T17:36:56;11.80;1.00
6206;DHT22;3136;48.788;9.772;2022-10-31T17:39:21;11.70;1.00
6206;DHT22;3136;48.788;9.772;2022-10-31T17:41:50;11.60;1.00
6206;DHT22;3136;48.788;9.772;2022-10-31T17:44:17;11.60;1.00
6206;DHT22;3136;48.788;9.772;2022-10-31T17:46:43;11.60;1.00
6206;DHT22;3136;48.788;9.772;2022-10-31T17:49:10;11.50;1.00
6206;DHT22;3136;48.788;9.772;2022-10-31T17:51:36;11.40;1.00
6206;DHT22;3136;48.788;9.772;2022-10-31T17:54:02;11.40;1.00
6206;DHT22;3136;48.788;9.772;2022-10-31T17:56:28;11.30;1.00
6206;DHT22;3136;48.788;9.772;2022-10-31T17:58:54;11.30;1.00
6206;DHT22;3136;48.788;9.772;2022-10-31T18:01:22;11.20;1.00
6206;DHT22;3136;48.788;9.772;2022-10-31T18:03:47;11.10;1.00
6206;DHT22;3136;48.788;9.772;2022-10-31T18:06:13;11.10;1.00
6206;DHT22;3136;48.788;9.772;2022-10-31T18:08:41;11.10;1.00
6206;DHT22;3136;48.788;9.772;2022-10-31T18:11:13;11.10;1.00
6206;DHT22;3136;48.788;9.772;2022-10-31T18:13:40;11.10;1.00
6206;DHT22;3136;48.788;9.772;2022-10-31T18:16:16;11.10;1.00
6206;DHT22;3136;48.788;9.772;2022-10-31T18:18:43;10.70;1.00
6206;DHT22;3136;48.788;9.772;2022-10-31T18:21:09;11.00;1.00
6206;DHT22;3136;48.788;9.772;2022-10-31T18:23:34;10.90;1.00
6206;DHT22;3136;48.788;9.772;2022-10-31T18:26:00;10.90;1.00
6206;DHT22;3136;48.788;9.772;2022-10-31T18:28:26;10.80;1.00
6206;DHT22;3136;48.788;9.772;2022-10-31T18:30:51;10.80;1.00
6206;DHT22;3136;48.788;9.772;2022-10-31T18:33:17;10.80;1.00
6206;DHT22;3136;48.788;9.772;2022-10-31T18:35:42;10.80;1.00
6206;DHT22;3136;48.788;9.772;2022-10-31T18:38:08;10.70;1.00
6206;DHT22;3136;48.788;9.772;2022-10-31T18:40:34;10.70;1.00
6206;DHT22;3136;48.788;9.772;2022-10-31T18:43:01;10.70;1.00
6206;DHT22;3136;48.788;9.772;2022-10-31T18:45:26;10.60;1.00
6206;DHT22;3136;48.788;9.772;2022-10-31T18:47:52;10.60;1.00
6206;DHT22;3136;48.788;9.772;2022-10-31T18:50:18;10.50;1.00
6206;DHT22;3136;48.788;9.772;2022-10-31T18:52:44;10.40;1.00
6206;DHT22;3136;48.788;9.772;2022-10-31T18:55:09;10.50;1.00
6206;DHT22;3136;48.788;9.772;2022-10-31T18:57:36;10.40;1.00